Time;durP1;ratioP1;P1;durP2;ratioP2;P2;SDS_P1;SDS_P2;PMS_P1;PMS_P2;Temp;Humidity;BMP_temperature;BMP_pressure;BME280_temperature;BME280_humidity;BME280_pressure;Samples;Min_cycle;Max_cycle;Signal;HPM_P1;HPM_P2
2021/03/26 00:00:47;;;;;;;51.10;28.02;;;;;;;4.95;93.81;101857.69;5091394;28;20036;-72
2021/03/26 00:03:16;;;;;;;50.25;27.80;;;;;;;4.93;94.80;101857.63;5092006;28;20156;-72
2021/03/26 00:05:43;;;;;;;49.25;28.30;;;;;;;4.95;94.39;101850.75;5090757;28;20024;-72
2021/03/26 00:08:11;;;;;;;48.13;27.77;;;;;;;4.94;95.50;101853.28;5091546;28;20418;-72
2021/03/26 00:10:36;;;;;;;50.05;27.83;;;;;;;4.96;95.81;101849.00;5091131;28;20047;-71
2021/03/26 00:13:02;;;;;;;48.53;27.90;;;;;;;4.95;95.01;101841.97;5091298;28;20072;-72
2021/03/26 00:15:27;;;;;;;47.72;28.00;;;;;;;4.98;95.53;101847.34;5091987;28;20032;-71
2021/03/26 00:17:53;;;;;;;50.58;27.67;;;;;;;4.94;97.14;101842.81;5090954;28;20537;-72
2021/03/26 00:20:19;;;;;;;49.42;26.77;;;;;;;4.93;95.77;101843.63;5096512;28;20387;-71
2021/03/26 00:22:44;;;;;;;49.28;27.23;;;;;;;4.93;96.41;101839.28;5090547;28;20028;-71
2021/03/26 00:25:10;;;;;;;49.90;27.52;;;;;;;4.89;97.74;101839.97;5094387;28;20020;-72
2021/03/26 00:27:36;;;;;;;47.40;27.10;;;;;;;4.95;96.73;101842.88;5094377;28;20028;-71
2021/03/26 00:30:05;;;;;;;47.55;27.27;;;;;;;4.89;96.18;101838.25;5094734;28;20082;-72
2021/03/26 00:32:30;;;;;;;47.22;26.80;;;;;;;4.85;97.47;101841.56;5093696;28;20040;-72
2021/03/26 00:34:56;;;;;;;50.17;28.20;;;;;;;4.82;97.85;101830.97;5098309;28;20030;-69
2021/03/26 00:37:21;;;;;;;50.95;27.90;;;;;;;4.83;98.87;101830.13;5094621;28;20025;-72
2021/03/26 00:39:48;;;;;;;48.78;27.35;;;;;;;4.81;99.37;101829.16;5094538;28;20459;-72
2021/03/26 00:42:13;;;;;;;50.13;28.50;;;;;;;4.82;99.28;101824.81;5096671;28;20024;-72
2021/03/26 00:44:39;;;;;;;51.63;28.42;;;;;;;4.81;98.53;101826.53;5093810;28;20028;-72
2021/03/26 00:47:04;;;;;;;50.17;28.20;;;;;;;4.79;99.18;101820.34;5095753;28;20035;-73
2021/03/26 00:49:30;;;;;;;51.67;28.90;;;;;;;4.81;100.00;101823.94;5094876;28;20067;-74
2021/03/26 00:51:56;;;;;;;51.80;29.17;;;;;;;4.84;100.00;101817.94;5095066;28;20032;-73
2021/03/26 00:54:21;;;;;;;49.15;28.85;;;;;;;4.83;99.85;101827.50;5095831;28;20086;-72
2021/03/26 00:56:47;;;;;;;55.13;30.58;;;;;;;4.80;100.00;101824.75;5093793;28;20024;-74
2021/03/26 00:59:12;;;;;;;53.45;30.40;;;;;;;4.77;100.00;101816.75;5094067;28;20494;-73
2021/03/26 01:01:38;;;;;;;53.85;30.45;;;;;;;4.75;100.00;101817.50;5094708;28;20399;-70
2021/03/26 01:04:04;;;;;;;53.90;30.73;;;;;;;4.72;100.00;101813.06;5094803;28;20506;-74
2021/03/26 01:06:30;;;;;;;54.95;30.80;;;;;;;4.75;100.00;101814.88;5094792;28;20027;-74
2021/03/26 01:08:55;;;;;;;56.78;33.13;;;;;;;4.72;100.00;101805.19;5095381;28;20032;-74
2021/03/26 01:11:25;;;;;;;55.05;32.08;;;;;;;4.68;100.00;101801.53;5095140;28;20035;-72
2021/03/26 01:13:51;;;;;;;62.20;34.47;;;;;;;4.69;100.00;101791.97;5094148;28;20043;-73
2021/03/26 01:16:18;;;;;;;60.83;35.08;;;;;;;4.68;100.00;101800.66;5094281;28;20495;-73
2021/03/26 01:18:44;;;;;;;62.60;35.45;;;;;;;4.67;100.00;101791.00;5093388;28;20028;-72
2021/03/26 01:21:15;;;;;;;62.15;35.22;;;;;;;4.64;100.00;101798.72;5095762;28;20055;-73
2021/03/26 01:23:42;;;;;;;60.72;36.17;;;;;;;4.62;100.00;101790.78;5092426;28;20036;-72
2021/03/26 01:26:07;;;;;;;61.67;35.83;;;;;;;4.62;100.00;101785.56;5093901;28;20131;-72
2021/03/26 01:28:33;;;;;;;62.47;35.15;;;;;;;4.60;100.00;101782.00;5093026;28;20103;-74
2021/03/26 01:30:59;;;;;;;62.42;35.42;;;;;;;4.66;100.00;101783.94;5094173;28;20502;-73
2021/03/26 01:33:25;;;;;;;59.50;33.60;;;;;;;4.67;100.00;101772.66;5093528;28;20043;-72
2021/03/26 01:35:51;;;;;;;60.80;34.88;;;;;;;4.71;100.00;101771.97;5093842;28;20032;-74
2021/03/26 01:38:17;;;;;;;68.43;36.38;;;;;;;4.72;100.00;101766.78;5092683;28;20024;-72
2021/03/26 01:40:49;;;;;;;66.78;35.65;;;;;;;4.73;100.00;101765.06;5093355;28;20059;-72
2021/03/26 01:43:19;;;;;;;67.77;35.87;;;;;;;4.73;100.00;101757.19;5093441;28;20386;-73
2021/03/26 01:45:44;;;;;;;62.08;35.08;;;;;;;4.74;100.00;101753.75;5092173;28;20361;-72
2021/03/26 01:48:13;;;;;;;62.42;35.55;;;;;;;4.70;100.00;101757.06;5093891;28;20110;-72
2021/03/26 01:50:39;;;;;;;66.97;36.08;;;;;;;4.67;100.00;101749.09;5093622;28;20027;-71
2021/03/26 01:53:07;;;;;;;66.88;35.92;;;;;;;4.66;100.00;101752.53;5093458;28;20039;-72
2021/03/26 01:55:35;;;;;;;67.22;34.67;;;;;;;4.64;100.00;101755.06;5074777;28;20020;-72
2021/03/26 01:58:01;;;;;;;64.22;35.63;;;;;;;4.67;100.00;101747.34;5091626;28;20071;-72
2021/03/26 02:00:34;;;;;;;66.22;34.60;;;;;;;4.66;100.00;101744.66;5093338;28;20462;-71
2021/03/26 02:03:16;;;;;;;63.55;34.13;;;;;;;4.61;100.00;101735.72;5090260;28;20035;-71
2021/03/26 02:05:42;;;;;;;65.60;32.95;;;;;;;4.60;100.00;101740.09;5093732;28;20032;-72
2021/03/26 02:08:11;;;;;;;67.57;34.40;;;;;;;4.59;100.00;101732.13;5092492;28;20127;-71
2021/03/26 02:10:37;;;;;;;64.93;35.00;;;;;;;4.60;100.00;101724.38;5093489;28;20526;-71
2021/03/26 02:13:05;;;;;;;67.97;34.58;;;;;;;4.59;100.00;101726.88;5093035;28;20107;-72
2021/03/26 02:15:43;;;;;;;60.30;31.80;;;;;;;4.60;100.00;101731.31;5093496;28;20035;-71
2021/03/26 02:18:15;;;;;;;65.50;34.67;;;;;;;4.65;100.00;101727.19;5090447;28;20502;-71
2021/03/26 02:20:46;;;;;;;65.93;34.30;;;;;;;4.63;100.00;101734.06;5093241;28;20023;-71
2021/03/26 02:23:17;;;;;;;60.15;31.52;;;;;;;4.64;100.00;101730.63;5093536;28;20039;-72
2021/03/26 02:25:42;;;;;;;67.45;34.22;;;;;;;4.63;100.00;101724.50;5090773;28;20024;-72
2021/03/26 02:28:09;;;;;;;64.45;33.40;;;;;;;4.65;100.00;101724.56;5093107;28;20036;-71
2021/03/26 02:30:40;;;;;;;67.72;34.67;;;;;;;4.66;100.00;101713.22;5091721;28;20024;-72
2021/03/26 02:33:06;;;;;;;66.32;34.38;;;;;;;4.64;100.00;101700.06;5092447;28;20048;-71
2021/03/26 02:35:35;;;;;;;72.72;36.95;;;;;;;4.66;100.00;101703.66;5092176;28;20390;-68
2021/03/26 02:38:06;;;;;;;63.15;33.13;;;;;;;4.66;100.00;101706.28;5088842;28;20536;-71
2021/03/26 02:40:47;;;;;;;66.78;33.55;;;;;;;4.65;100.00;101712.34;5093534;28;20119;-72
2021/03/26 02:43:25;;;;;;;64.15;32.58;;;;;;;4.70;100.00;101702.06;5089746;28;20028;-72
2021/03/26 02:46:15;;;;;;;68.95;34.22;;;;;;;4.76;100.00;101693.56;5092071;28;20044;-72
2021/03/26 02:49:00;;;;;;;69.07;33.22;;;;;;;4.83;100.00;101700.84;5028221;28;20049;-69
2021/03/26 02:51:32;;;;;;;65.05;33.50;;;;;;;4.94;100.00;101702.19;5030432;28;20038;-72
2021/03/26 02:54:26;;;;;;;63.85;32.67;;;;;;;4.95;100.00;101705.69;5030400;28;20053;-72
2021/03/26 02:56:58;;;;;;;67.90;34.15;;;;;;;4.98;100.00;101701.50;5028632;28;20087;-71
2021/03/26 02:59:49;;;;;;;60.17;31.13;;;;;;;5.00;100.00;101702.44;5019183;28;20048;-72
2021/03/26 03:02:16;;;;;;;62.53;33.38;;;;;;;5.07;100.00;101703.59;5009059;28;20073;-70
2021/03/26 03:04:48;;;;;;;63.67;32.42;;;;;;;5.16;100.00;101697.81;5010724;28;20048;-71
2021/03/26 03:07:25;;;;;;;63.38;33.78;;;;;;;5.23;100.00;101697.25;5010106;28;20042;-70
2021/03/26 03:09:56;;;;;;;61.10;31.60;;;;;;;5.31;100.00;101705.41;5009841;28;20392;-70
2021/03/26 03:12:28;;;;;;;58.78;31.67;;;;;;;5.28;100.00;101700.03;5009101;28;20125;-70
2021/03/26 03:14:57;;;;;;;;;;;;;;;5.27;100.00;101698.25;5010820;28;20034;-71
2021/03/26 03:17:26;;;;;;;58.50;31.00;;;;;;;5.25;100.00;101687.69;5009000;28;19913;-72
2021/03/26 03:20:20;;;;;;;59.33;31.10;;;;;;;5.24;100.00;101699.00;5009014;28;20042;-72
2021/03/26 03:22:57;;;;;;;58.55;30.10;;;;;;;5.21;100.00;101693.66;5008671;28;20041;-71
2021/03/26 03:25:26;;;;;;;58.13;31.20;;;;;;;5.18;100.00;101686.53;5016162;28;20436;-72
2021/03/26 03:27:57;;;;;;;60.15;31.05;;;;;;;5.09;100.00;101687.94;5030617;28;20076;-72
2021/03/26 03:30:28;;;;;;;58.38;31.55;;;;;;;5.05;100.00;101693.03;5028884;28;20502;-71
2021/03/26 03:33:09;;;;;;;60.30;30.50;;;;;;;5.01;100.00;101692.84;5030017;28;20049;-70
2021/03/26 03:35:50;;;;;;;58.55;30.10;;;;;;;4.94;100.00;101690.81;5032904;28;20177;-72
2021/03/26 03:38:27;;;;;;;60.63;30.75;;;;;;;4.91;100.00;101694.22;5035581;28;20093;-69
2021/03/26 03:40:59;;;;;;;59.78;31.52;;;;;;;4.85;100.00;101689.59;5090388;28;20111;-71
2021/03/26 03:43:57;;;;;;;58.88;30.25;;;;;;;4.79;100.00;101694.59;5093478;28;20437;-71
2021/03/26 03:46:44;;;;;;;58.10;30.33;;;;;;;4.79;100.00;101691.97;5089889;28;20481;-73
2021/03/26 03:49:36;;;;;;;65.18;34.08;;;;;;;4.79;100.00;101694.59;5092997;28;20055;-72
2021/03/26 03:52:23;;;;;;;60.95;31.45;;;;;;;4.71;100.00;101691.63;5091329;28;20020;-72
2021/03/26 03:54:59;;;;;;;61.95;31.77;;;;;;;4.66;100.00;101693.19;5092009;28;20042;-70
2021/03/26 03:57:32;;;;;;;61.63;30.85;;;;;;;4.63;100.00;101694.78;5090303;28;20020;-72
2021/03/26 04:00:07;;;;;;;62.22;31.90;;;;;;;4.58;100.00;101685.84;5094226;28;20035;-70
2021/03/26 04:03:00;;;;;;;64.15;32.67;;;;;;;4.57;100.00;101684.91;5094664;28;20509;-72
2021/03/26 04:05:32;;;;;;;60.70;31.50;;;;;;;4.61;100.00;101685.97;5093763;28;20032;-69
2021/03/26 04:08:03;;;;;;;64.78;33.17;;;;;;;4.69;100.00;101681.97;5094303;28;20024;-66
2021/03/26 04:10:32;;;;;;;64.82;32.58;;;;;;;4.76;100.00;101677.84;5095207;28;20060;-70
2021/03/26 04:13:04;;;;;;;68.15;33.45;;;;;;;4.82;100.00;101673.75;5095115;28;20024;-72
2021/03/26 04:15:38;;;;;;;63.85;33.45;;;;;;;4.88;100.00;101679.25;5094810;28;20416;-68
2021/03/26 04:18:08;;;;;;;63.65;32.92;;;;;;;4.96;100.00;101671.69;5092047;28;20429;-70
2021/03/26 04:20:42;;;;;;;67.00;33.17;;;;;;;5.01;100.00;101664.00;5094488;28;20466;-66
2021/03/26 04:23:27;;;;;;;65.13;33.53;;;;;;;5.09;100.00;101669.56;5095865;28;20020;-69
2021/03/26 04:26:34;;;;;;;64.43;34.55;;;;;;;5.14;100.00;101661.06;5094637;28;20020;-71
2021/03/26 04:29:13;;;;;;;59.85;31.73;;;;;;;5.20;100.00;101660.41;5032501;28;20041;-69
2021/03/26 04:31:45;;;;;;;60.25;32.70;;;;;;;5.22;100.00;101658.75;5032452;28;20049;-70
2021/03/26 04:34:12;;;;;;;60.92;31.50;;;;;;;5.24;100.00;101654.44;5031921;28;20039;-69
2021/03/26 04:36:54;;;;;;;61.97;31.30;;;;;;;5.26;100.00;101660.66;5032858;28;20443;-73
2021/03/26 04:39:27;;;;;;;61.58;32.15;;;;;;;5.28;100.00;101660.72;5030747;28;20041;-74
2021/03/26 04:42:05;;;;;;;57.63;29.80;;;;;;;5.29;100.00;101657.25;5032780;28;20025;-73
2021/03/26 04:44:42;;;;;;;62.75;31.83;;;;;;;5.31;100.00;101652.97;5031987;28;20080;-74
2021/03/26 04:47:29;;;;;;;57.72;30.25;;;;;;;5.32;100.00;101646.88;5032459;28;20149;-74
2021/03/26 04:49:58;;;;;;;58.75;30.50;;;;;;;5.29;100.00;101645.03;5035041;28;20467;-74
2021/03/26 04:52:32;;;;;;;56.55;29.20;;;;;;;5.27;100.00;101646.72;5032531;28;20480;-74
2021/03/26 04:55:22;;;;;;;59.20;30.40;;;;;;;5.27;100.00;101641.47;5032540;28;20457;-74
2021/03/26 04:57:55;;;;;;;60.38;30.88;;;;;;;5.22;100.00;101643.88;5032324;28;20360;-73
2021/03/26 05:00:33;;;;;;;59.97;30.40;;;;;;;5.18;100.00;101644.59;5032090;28;20037;-73
2021/03/26 05:03:13;;;;;;;59.40;29.80;;;;;;;5.17;100.00;101650.69;5031316;28;20213;-69
2021/03/26 05:05:43;;;;;;;60.67;30.23;;;;;;;5.11;100.00;101639.97;5054474;28;20035;-71
2021/03/26 05:08:11;;;;;;;58.00;30.20;;;;;;;5.12;100.00;101640.88;5095489;28;20063;-71
2021/03/26 05:10:37;;;;;;;61.05;30.58;;;;;;;5.10;100.00;101638.19;5093135;28;20452;-71
2021/03/26 05:13:11;;;;;;;60.13;30.33;;;;;;;5.09;100.00;101636.38;5077220;28;20031;-69
2021/03/26 05:15:44;;;;;;;60.15;30.88;;;;;;;5.03;100.00;101631.78;5093487;28;20471;-68
2021/03/26 05:18:47;;;;;;;62.60;32.30;;;;;;;5.02;100.00;101636.97;5094509;28;20036;-71
2021/03/26 05:21:19;;;;;;;61.53;30.73;;;;;;;5.01;100.00;101638.72;5093476;28;20106;-71
2021/03/26 05:23:58;;;;;;;62.40;30.52;;;;;;;5.02;100.00;101634.34;5074689;28;20109;-71
2021/03/26 05:26:24;;;;;;;64.82;32.15;;;;;;;5.01;100.00;101628.22;5094283;28;20066;-72
2021/03/26 05:28:50;;;;;;;62.58;30.63;;;;;;;5.01;100.00;101632.56;5094209;28;20600;-72
2021/03/26 05:31:38;;;;;;;61.10;31.17;;;;;;;5.01;100.00;101629.94;5094698;28;20115;-73
2021/03/26 05:34:26;;;;;;;59.78;31.05;;;;;;;5.02;100.00;101626.50;5093831;28;20039;-72
2021/03/26 05:37:12;;;;;;;64.47;32.17;;;;;;;5.04;100.00;101628.34;5032792;28;20112;-71
2021/03/26 05:39:38;;;;;;;58.67;30.63;;;;;;;5.06;100.00;101631.03;5030143;28;20034;-72
2021/03/26 05:42:06;;;;;;;61.95;31.77;;;;;;;5.10;100.00;101625.06;5031965;28;20139;-73
2021/03/26 05:44:50;;;;;;;60.92;30.45;;;;;;;5.15;100.00;101615.66;5030717;28;20037;-73
2021/03/26 05:47:46;;;;;;;62.08;30.58;;;;;;;5.21;100.00;101623.78;5031013;28;20045;-72
2021/03/26 05:50:20;;;;;;;63.35;31.40;;;;;;;5.29;100.00;101624.06;5030261;28;20392;-73
2021/03/26 05:53:07;;;;;;;61.55;30.33;;;;;;;5.34;100.00;101624.22;5029959;28;20037;-73
2021/03/26 05:55:48;;;;;;;63.38;31.13;;;;;;;5.39;99.33;101635.81;5030895;28;20041;-72
2021/03/26 05:58:47;;;;;;;59.60;28.17;;;;;;;5.51;96.84;101625.75;5031093;28;20491;-73
2021/03/26 06:01:31;;;;;;;57.50;29.33;;;;;;;5.61;95.84;101620.84;5029503;28;20052;-73
2021/03/26 06:04:33;;;;;;;60.80;30.40;;;;;;;5.64;95.45;101621.88;5030300;28;20048;-72
2021/03/26 06:07:25;;;;;;;58.53;29.10;;;;;;;5.71;94.00;101625.63;5030435;28;20045;-72
2021/03/26 06:10:20;;;;;;;62.10;31.17;;;;;;;5.80;92.65;101614.56;5030832;28;20033;-72
2021/03/26 06:12:56;;;;;;;58.15;28.48;;;;;;;5.84;91.74;101619.06;5031458;28;20030;-72
2021/03/26 06:15:52;;;;;;;59.47;29.85;;;;;;;5.85;92.03;101616.50;5092701;28;20031;-72
2021/03/26 06:19:11;;;;;;;56.15;27.77;;;;;;;5.87;91.84;101612.22;5091182;28;20031;-72
2021/03/26 06:21:52;;;;;;;56.75;27.27;;;;;;;6.00;89.15;101612.66;4994021;28;20135;-71
2021/03/26 06:24:33;;;;;;;56.65;29.40;;;;;;;5.99;89.97;101609.16;4989266;28;20081;-72
2021/03/26 06:27:29;;;;;;;55.58;29.25;;;;;;;6.01;90.12;101602.22;4993895;28;20054;-73
2021/03/26 06:30:11;;;;;;;55.63;28.45;;;;;;;6.09;89.02;101602.50;4992433;28;20042;-73
2021/03/26 06:33:02;;;;;;;52.25;25.38;;;;;;;6.11;88.07;101611.31;4995318;28;20426;-71
2021/03/26 06:35:39;;;;;;;57.60;29.05;;;;;;;6.18;87.55;101612.44;4992932;28;20034;-69
2021/03/26 06:38:26;;;;;;;53.45;24.85;;;;;;;6.20;86.73;101614.25;4993982;28;20034;-72
2021/03/26 06:41:15;;;;;;;53.17;26.90;;;;;;;6.22;86.90;101604.72;4991427;28;20129;-71
2021/03/26 06:44:19;;;;;;;57.60;28.65;;;;;;;6.20;87.08;101610.75;4992048;28;20038;-71
2021/03/26 06:47:11;;;;;;;56.83;30.00;;;;;;;6.24;86.11;101602.13;4961218;28;20050;-69
2021/03/26 06:50:25;;;;;;;56.25;29.50;;;;;;;6.26;85.42;101606.59;4949130;28;20051;-73
2021/03/26 06:53:21;;;;;;;54.25;28.88;;;;;;;6.13;85.87;101604.41;4929406;29;20528;-73
2021/03/26 06:56:07;;;;;;;54.42;28.73;;;;;;;6.07;86.86;101601.53;4970275;28;20125;-74
2021/03/26 06:59:16;;;;;;;51.67;26.52;;;;;;;6.13;86.58;101593.00;5006218;28;20034;-74
2021/03/26 07:02:08;;;;;;;57.10;28.40;;;;;;;6.20;86.02;101601.13;4947312;29;20036;-72
2021/03/26 07:05:10;;;;;;;54.38;27.65;;;;;;;6.36;85.03;101604.28;4946030;29;20040;-72
2021/03/26 07:07:57;;;;;;;53.50;29.58;;;;;;;6.47;83.93;101581.91;4946313;29;20039;-72
2021/03/26 07:10:36;;;;;;;53.83;28.33;;;;;;;6.54;83.94;101599.66;4946059;29;20103;-74
2021/03/26 07:13:31;;;;;;;52.67;27.52;;;;;;;6.62;83.41;101595.50;4946678;29;20075;-72
2021/03/26 07:16:26;;;;;;;52.65;26.58;;;;;;;6.70;83.04;101598.41;4946432;29;20134;-68
2021/03/26 07:19:00;;;;;;;53.50;27.75;;;;;;;6.79;82.69;101603.06;4950779;29;20051;-76
2021/03/26 07:21:46;;;;;;;50.85;27.38;;;;;;;6.84;82.02;101598.84;4950713;29;20109;-78
2021/03/26 07:24:52;;;;;;;54.53;27.10;;;;;;;6.98;81.73;101594.91;4936042;29;20077;-75
2021/03/26 07:27:45;;;;;;;49.70;26.48;;;;;;;7.08;80.13;101611.88;4891237;29;20036;-74
2021/03/26 07:30:58;;;;;;;49.25;25.52;;;;;;;7.14;79.47;101591.00;4919125;29;20090;-78
2021/03/26 07:33:42;;;;;;;51.03;27.13;;;;;;;7.26;79.29;101595.75;4923222;29;20271;-73
2021/03/26 07:36:16;;;;;;;50.08;26.17;;;;;;;7.34;79.25;101598.63;4929624;29;20036;-75
2021/03/26 07:39:05;;;;;;;41.45;19.63;;;;;;;7.50;77.50;101613.13;4980216;28;20088;-80
2021/03/26 07:41:51;;;;;;;46.47;25.00;;;;;;;7.60;76.77;101607.28;5027185;28;20120;-79
2021/03/26 07:44:52;;;;;;;49.25;25.10;;;;;;;7.75;76.40;101614.72;5028552;28;20392;-71
2021/03/26 07:47:48;;;;;;;43.20;23.00;;;;;;;7.89;76.58;101609.81;5029190;28;20403;-72
2021/03/26 07:50:38;;;;;;;48.47;23.33;;;;;;;7.95;74.92;101615.25;5027891;28;20044;-75
2021/03/26 07:53:26;;;;;;;46.80;23.98;;;;;;;8.05;75.59;101610.25;5026551;28;20033;-68
2021/03/26 07:56:08;;;;;;;45.60;23.77;;;;;;;8.27;74.86;101609.06;5025775;28;20112;-68
2021/03/26 07:58:39;;;;;;;45.13;24.15;;;;;;;8.37;74.22;101606.72;5026839;28;20072;-67
2021/03/26 08:01:26;;;;;;;43.90;23.98;;;;;;;8.57;73.10;101608.09;5023362;28;20112;-68
2021/03/26 08:04:12;;;;;;;44.15;22.98;;;;;;;8.71;71.58;101604.94;5050615;28;20063;-66
2021/03/26 08:07:21;;;;;;;42.08;22.38;;;;;;;8.73;70.83;101616.41;5088719;28;20543;-69
2021/03/26 08:10:20;;;;;;;41.35;22.02;;;;;;;8.76;70.96;101610.31;5091503;28;20034;-68
2021/03/26 08:12:56;;;;;;;41.60;22.02;;;;;;;8.80;71.21;101611.31;5090329;28;20058;-67
2021/03/26 08:15:37;;;;;;;42.00;22.35;;;;;;;8.90;70.72;101613.31;5090390;28;20047;-67
2021/03/26 08:18:25;;;;;;;43.35;22.23;;;;;;;9.05;69.81;101610.13;5092307;28;20027;-66
2021/03/26 08:21:00;;;;;;;43.05;23.10;;;;;;;9.10;70.51;101612.84;5090935;28;20035;-67
2021/03/26 08:23:49;;;;;;;41.33;20.17;;;;;;;9.32;68.64;101603.66;5090982;28;20388;-67
2021/03/26 08:26:28;;;;;;;38.30;20.58;;;;;;;9.44;68.50;101603.94;5089179;28;20021;-66
2021/03/26 08:29:16;;;;;;;37.13;18.55;;;;;;;9.91;67.46;101609.28;5088244;28;20024;-66
2021/03/26 08:31:54;;;;;;;36.28;19.38;;;;;;;10.14;65.47;101607.94;5091274;28;20486;-68
2021/03/26 08:34:40;;;;;;;34.47;15.82;;;;;;;10.16;64.99;101608.84;5092346;28;20023;-66
2021/03/26 08:37:22;;;;;;;37.67;19.65;;;;;;;10.03;65.62;101605.09;5090363;28;20088;-67
2021/03/26 08:39:51;;;;;;;38.45;19.50;;;;;;;10.38;64.83;101594.28;5089047;28;20030;-67
2021/03/26 08:42:43;;;;;;;36.97;18.88;;;;;;;10.55;63.67;101607.81;5090573;28;20080;-68
2021/03/26 08:45:13;;;;;;;36.58;18.02;;;;;;;10.52;63.79;101603.34;5093753;28;20043;-66
2021/03/26 08:47:47;;;;;;;36.00;18.65;;;;;;;10.50;63.63;101597.16;5090908;28;20036;-66
2021/03/26 08:50:39;;;;;;;34.75;17.25;;;;;;;10.58;63.86;101591.97;5095425;28;20024;-67
2021/03/26 08:53:21;;;;;;;36.17;16.83;;;;;;;10.62;63.18;101580.59;5094189;28;20032;-69
2021/03/26 08:56:38;;;;;;;34.30;16.60;;;;;;;10.71;62.72;101596.59;5092782;28;20073;-66
2021/03/26 08:59:22;;;;;;;34.63;15.75;;;;;;;10.71;61.88;101591.31;5094751;28;20032;-69
2021/03/26 09:02:21;;;;;;;33.25;15.25;;;;;;;10.75;61.58;101590.50;5095878;28;20020;-70
2021/03/26 09:05:10;;;;;;;33.22;15.57;;;;;;;10.72;62.40;101595.75;5092724;28;20024;-70
2021/03/26 09:08:00;;;;;;;29.63;12.00;;;;;;;10.78;61.01;101595.84;5093693;28;20024;-66
2021/03/26 09:10:56;;;;;;;33.63;16.10;;;;;;;10.75;61.54;101585.22;5092074;28;20032;-70
2021/03/26 09:13:53;;;;;;;31.77;14.13;;;;;;;10.76;61.11;101592.28;5092906;28;20034;-67
2021/03/26 09:16:26;;;;;;;30.27;12.23;;;;;;;10.79;61.56;101586.13;5091321;28;20063;-69
2021/03/26 09:18:54;;;;;;;;;;;;;;;10.94;61.20;101607.53;5095422;28;20370;-73
2021/03/26 09:21:37;;;;;;;27.60;10.68;;;;;;;10.95;60.49;101585.50;5096087;28;19912;-69
2021/03/26 09:24:33;;;;;;;33.00;16.25;;;;;;;10.87;61.58;101587.16;5096674;28;20082;-67
2021/03/26 09:27:13;;;;;;;29.42;13.25;;;;;;;10.94;61.09;101581.06;5096122;28;20089;-68
2021/03/26 09:30:11;;;;;;;31.25;14.25;;;;;;;11.00;61.19;101577.63;5092903;28;20062;-70
2021/03/26 09:32:44;;;;;;;30.92;13.75;;;;;;;11.05;60.70;101581.22;5093138;28;20059;-68
2021/03/26 09:35:12;;;;;;;28.40;11.70;;;;;;;11.07;59.57;101590.09;5095185;28;20026;-69
2021/03/26 09:37:53;;;;;;;28.90;12.95;;;;;;;11.17;59.95;101585.81;5091467;28;20060;-66
2021/03/26 09:40:55;;;;;;;27.45;11.25;;;;;;;11.24;59.03;101584.13;5093062;28;20035;-67
2021/03/26 09:43:34;;;;;;;29.15;12.85;;;;;;;11.08;60.02;101588.31;5094739;28;20375;-66
2021/03/26 09:45:59;;;;;;;27.58;10.23;;;;;;;11.12;58.86;101584.84;5093433;28;20108;-70
2021/03/26 09:48:27;;;;;;;30.90;11.73;;;;;;;11.13;58.45;101584.88;5092997;28;20110;-67
2021/03/26 09:51:23;;;;;;;28.15;11.07;;;;;;;11.18;59.56;101584.94;5094438;28;20032;-69
2021/03/26 09:53:50;;;;;;;27.35;11.60;;;;;;;11.16;60.27;101594.63;5091194;28;20032;-67
2021/03/26 09:56:40;;;;;;;25.42;8.90;;;;;;;11.37;58.19;101595.78;5093237;28;20103;-68
2021/03/26 09:59:14;;;;;;;26.25;11.02;;;;;;;11.24;59.19;101585.03;5093038;28;20024;-69
2021/03/26 10:01:55;;;;;;;27.02;10.80;;;;;;;11.37;57.50;101571.94;5093427;28;20061;-69
2021/03/26 10:04:36;;;;;;;26.45;9.82;;;;;;;11.38;58.12;101577.25;5092446;28;20051;-66
2021/03/26 10:07:04;;;;;;;24.95;9.52;;;;;;;11.37;57.62;101569.31;5092198;28;20071;-69
2021/03/26 10:09:43;;;;;;;23.90;7.85;;;;;;;11.50;56.67;101577.44;5094536;28;20070;-70
2021/03/26 10:12:13;;;;;;;23.92;8.00;;;;;;;11.47;56.40;101587.06;5092725;28;20564;-68
2021/03/26 10:15:04;;;;;;;26.17;9.27;;;;;;;11.66;57.02;101578.50;5089861;28;20489;-72
2021/03/26 10:17:42;;;;;;;23.98;8.57;;;;;;;11.92;56.63;101572.56;5091336;28;20036;-69
2021/03/26 10:20:18;;;;;;;24.40;8.57;;;;;;;12.07;55.00;101569.22;5090403;28;20024;-68
2021/03/26 10:23:00;;;;;;;23.65;7.82;;;;;;;12.02;54.43;101560.34;5095749;28;20024;-67
2021/03/26 10:25:47;;;;;;;22.67;7.57;;;;;;;12.14;54.54;101555.16;5093603;28;20310;-72
2021/03/26 10:28:21;;;;;;;22.63;7.65;;;;;;;12.44;53.82;101553.66;5093471;28;20028;-69
2021/03/26 10:30:52;;;;;;;23.48;7.63;;;;;;;12.59;53.07;101546.69;5095178;28;20041;-70
2021/03/26 10:33:20;;;;;;;22.48;6.65;;;;;;;12.58;51.78;101550.22;5091138;28;20109;-72
2021/03/26 10:36:12;;;;;;;21.08;5.47;;;;;;;12.97;50.98;101546.03;5091952;28;20060;-69
2021/03/26 10:38:54;;;;;;;18.55;5.10;;;;;;;12.92;50.50;101543.38;5092166;28;20027;-70
2021/03/26 10:41:34;;;;;;;20.50;5.90;;;;;;;12.98;50.68;101529.25;5090187;28;20020;-67
2021/03/26 10:44:22;;;;;;;19.80;5.45;;;;;;;13.45;49.40;101525.06;5093334;28;20024;-68
2021/03/26 10:46:55;;;;;;;20.70;5.40;;;;;;;13.86;47.87;101516.28;5090341;28;20043;-67
2021/03/26 10:49:26;;;;;;;20.85;5.78;;;;;;;13.87;46.98;101513.63;5092300;28;20440;-74
2021/03/26 10:52:07;;;;;;;20.08;5.32;;;;;;;14.44;45.83;101505.66;5092905;28;20031;-70
2021/03/26 10:54:44;;;;;;;20.52;5.38;;;;;;;14.73;45.44;101501.22;5091681;28;20097;-68
2021/03/26 10:57:12;;;;;;;19.63;5.50;;;;;;;15.09;43.40;101497.56;5089531;28;20031;-69
2021/03/26 10:59:53;;;;;;;19.05;5.05;;;;;;;15.24;42.74;101498.38;5092038;28;20032;-69
2021/03/26 11:02:38;;;;;;;17.20;4.22;;;;;;;15.09;42.21;101507.31;5097264;28;20368;-71
2021/03/26 11:05:30;;;;;;;21.63;5.20;;;;;;;15.08;42.13;101498.44;5093645;28;20115;-74
2021/03/26 11:07:58;;;;;;;18.80;4.37;;;;;;;14.95;41.50;101470.97;5092242;28;20092;-72
2021/03/26 11:10:31;;;;;;;18.85;4.97;;;;;;;14.19;43.06;101504.78;5092581;28;20713;-70
2021/03/26 11:13:02;;;;;;;;;;;;;;;14.19;42.91;101498.59;5090654;28;20024;-70
2021/03/26 11:15:35;;;;;;;20.65;5.53;;;;;;;13.45;45.12;101478.13;5092227;28;19919;-69
2021/03/26 11:18:12;;;;;;;20.33;5.40;;;;;;;13.30;46.56;101488.69;5072740;28;20040;-69
2021/03/26 11:20:43;;;;;;;19.02;5.25;;;;;;;13.69;44.91;101479.97;5090814;28;20410;-68
2021/03/26 11:23:31;;;;;;;20.45;6.30;;;;;;;14.30;44.82;101489.72;5092827;28;20039;-69
2021/03/26 11:26:05;;;;;;;19.98;6.03;;;;;;;14.29;44.95;101471.13;5089661;28;20470;-68
2021/03/26 11:28:40;;;;;;;19.70;5.97;;;;;;;14.72;42.68;101472.81;5097529;28;20027;-69
2021/03/26 11:31:19;;;;;;;21.30;6.30;;;;;;;15.28;43.02;101470.84;5091186;28;20442;-68
2021/03/26 11:33:57;;;;;;;19.27;5.43;;;;;;;15.63;41.90;101459.97;5094243;28;20537;-75
2021/03/26 11:36:28;;;;;;;19.48;5.90;;;;;;;16.67;40.22;101456.41;5088890;28;20016;-69
2021/03/26 11:39:01;;;;;;;19.77;5.80;;;;;;;15.84;41.31;101442.97;5092242;28;20020;-66
2021/03/26 11:41:34;;;;;;;20.17;6.10;;;;;;;15.15;42.42;101454.03;5091710;28;20493;-67
2021/03/26 11:44:02;;;;;;;20.45;5.50;;;;;;;15.39;42.35;101447.72;5090511;28;20028;-70
2021/03/26 11:46:37;;;;;;;19.65;6.07;;;;;;;15.01;43.32;101440.78;5091146;28;20050;-72
2021/03/26 11:49:14;;;;;;;19.10;5.07;;;;;;;14.82;43.45;101446.19;5091282;28;20047;-69
2021/03/26 11:51:58;;;;;;;20.20;6.57;;;;;;;14.46;44.92;101433.88;5092792;28;20034;-67
2021/03/26 11:54:55;;;;;;;22.92;6.20;;;;;;;14.60;44.96;101437.34;5084585;28;20063;-68
2021/03/26 11:57:44;;;;;;;21.20;5.90;;;;;;;14.18;45.58;101428.56;5084238;28;20385;-70
2021/03/26 12:00:15;;;;;;;18.10;5.00;;;;;;;14.46;44.20;101410.78;5092723;28;20040;-72
2021/03/26 12:02:52;;;;;;;20.83;6.13;;;;;;;15.44;43.41;101426.34;5092109;28;20028;-66
2021/03/26 12:05:29;;;;;;;23.17;6.00;;;;;;;15.31;44.64;101413.09;5094404;28;20027;-70